Aérodrome :
LOGIN :

S'inscrire | Disclaimer

   EN    FR    IT 

 










Légende :    VFR   VFR Marginal   IFR   IFR Intensif   IFR Très Intensif
Visi : 
Plafond : 
>= 8 km
>= 3000ft
5 à 8 km
1000 à 3000 ft
1500m à 5 km
500 à 1000 ft
800 à 1500m
200 à 500 ft
< 800m
< 200 ft
Symboles :   Orages  Brouillard  Fortes neiges  Fortes précipitations  Vent > 20 kt
SIGMETs :   Divers  Orages  Givrage  Turbulence  Onde Orograph.  Cendres Volcan.







- Altitude de l'aérodrome : 84 ft
- Voir les cartes d'approche


LFBC - Cazaux

DERNIER METAR :
  • 131930Z AUTO 07003KT CAVOK 10/09 Q1027 BECMG 0800 BCFG

METARs EXPIRÉS :
  • 131900Z AUTO 06004KT CAVOK 11/10 Q1027 BECMG 0800 BCFG
  • 131830Z AUTO 07004KT CAVOK 11/09 Q1027 BECMG 0800 BCFG
  • 131800Z AUTO 05004KT CAVOK 13/10 Q1027 BECMG 3000 BR
  • 131730Z AUTO 06006KT CAVOK 13/10 Q1027 BECMG 3000 BR
  • 131700Z AUTO 07004KT CAVOK 13/10 Q1027 NOSIG

TAF TAF LFBC
Valide du 13 à 15h jusqu'au 14 à 15h UTC


131400Z 1315/1415 08006KT 9999 FEW010 SCT025
BECMG 1319/1320 3000 BR
BECMG 1320/1322 0800 BCFG
PROB40
TEMPO 1322/1407 0500 FG VV///
BECMG 1407/1409 9999 NSW
Pas de NOTAMs connus pour ce terrain.



MET'MAP, la Météo Aéronautique d'un coup d'oeil ! - Copyright ORBIFLY Décembre 2007 - Disclaimer

ORBIFLY MET'MAP TEAM :

Programmation & Développement : Alexandra Zaïnal
Conception & Développement : Baudouin d'Aumeries
Co-Programmation & Développement : Marc-Olivier Méhu
Soutien technique & logistique : Manuel Goepfert

Contact : metmap@orbifly.com




SOURCES & CREDITS :

   NOAA